createdAt,value
2018-12-12T00:00:11.002Z,2.70
2018-12-12T00:02:47.789Z,2.60
2018-12-12T00:05:21.789Z,2.60
2018-12-12T00:07:56.537Z,2.70
2018-12-12T00:10:30.574Z,2.70
2018-12-12T00:13:05.269Z,2.70
2018-12-12T00:15:40.655Z,2.70
2018-12-12T00:18:15.065Z,2.70
2018-12-12T00:20:48.985Z,2.80
2018-12-12T00:23:19.157Z,2.80
2018-12-12T00:25:53.985Z,2.80
2018-12-12T00:28:27.898Z,2.70
2018-12-12T00:36:05.430Z,2.80
2018-12-12T00:38:40.150Z,2.80
2018-12-12T00:41:14.541Z,2.90
2018-12-12T00:43:49.502Z,2.80
2018-12-12T00:46:24.380Z,2.80
2018-12-12T00:48:58.325Z,2.70
2018-12-12T00:51:32.985Z,2.80
2018-12-12T00:54:07.801Z,2.80
2018-12-12T00:56:42.110Z,2.70
2018-12-12T00:59:16.059Z,2.80
2018-12-12T01:01:51.969Z,2.80
2018-12-12T01:04:26.010Z,2.80
2018-12-12T01:06:59.917Z,2.70
2018-12-12T01:09:34.028Z,2.70
2018-12-12T01:12:10.861Z,2.70
2018-12-12T01:14:44.884Z,2.70
2018-12-12T01:17:19.109Z,2.80
2018-12-12T01:19:49.922Z,2.80
2018-12-12T01:22:24.782Z,2.80
2018-12-12T01:24:59.408Z,2.70
2018-12-12T01:27:34.224Z,2.70
2018-12-12T01:30:08.372Z,2.80
2018-12-12T01:32:43.361Z,2.70
2018-12-12T01:35:18.094Z,2.80
2018-12-12T01:40:19.730Z,2.80
2018-12-12T01:42:54.604Z,2.90
2018-12-12T01:45:28.708Z,2.70
2018-12-12T01:48:03.474Z,2.70
2018-12-12T01:50:38.193Z,2.70
2018-12-12T01:53:10.029Z,2.70
2018-12-12T01:55:44.045Z,2.70
2018-12-12T01:58:18.082Z,2.70
2018-12-12T02:00:51.988Z,2.70
2018-12-12T02:03:26.293Z,2.70
2018-12-12T02:06:00.995Z,2.70
2018-12-12T02:08:34.914Z,2.70
2018-12-12T02:11:08.984Z,2.70
2018-12-12T02:13:43.961Z,2.70
2018-12-12T02:16:18.002Z,2.70
2018-12-12T02:18:52.961Z,2.80
2018-12-12T02:21:27.593Z,2.80
2018-12-12T02:24:01.622Z,2.70
2018-12-12T02:26:35.555Z,2.70
2018-12-12T02:29:09.805Z,2.70
2018-12-12T02:31:44.682Z,2.80
2018-12-12T02:34:18.723Z,2.80
2018-12-12T02:36:53.621Z,2.80
2018-12-12T02:39:28.258Z,2.80
2018-12-12T02:42:04.104Z,2.80
2018-12-12T02:44:38.123Z,2.70
2018-12-12T02:47:12.134Z,2.80
2018-12-12T02:49:46.299Z,2.70
2018-12-12T02:52:20.253Z,2.80
2018-12-12T02:54:54.273Z,2.80
2018-12-12T02:57:28.311Z,2.70
2018-12-12T03:00:02.329Z,2.70
2018-12-12T03:02:37.854Z,2.70
2018-12-12T03:05:12.347Z,2.80
2018-12-12T03:07:47.074Z,2.80
2018-12-12T03:10:21.117Z,2.70
2018-12-12T03:12:56.118Z,2.70
2018-12-12T03:15:30.037Z,2.70
2018-12-12T03:18:04.868Z,2.70
2018-12-12T03:20:38.966Z,2.70
2018-12-12T03:23:13.285Z,2.70
2018-12-12T03:25:47.392Z,2.70
2018-12-12T03:28:21.410Z,2.70
2018-12-12T03:30:55.558Z,2.60
2018-12-12T03:33:30.563Z,2.70
2018-12-12T03:36:04.486Z,2.60
2018-12-12T03:38:38.523Z,2.70
2018-12-12T03:41:12.523Z,2.70
2018-12-12T03:43:48.437Z,2.60
2018-12-12T03:46:23.173Z,2.60
2018-12-12T03:48:58.041Z,2.60
2018-12-12T03:51:28.642Z,2.60
2018-12-12T03:54:02.650Z,2.60
2018-12-12T03:56:37.458Z,2.60
2018-12-12T03:59:11.354Z,2.60
2018-12-12T04:01:45.292Z,2.60
2018-12-12T04:04:20.123Z,2.60
2018-12-12T04:06:54.150Z,2.70
2018-12-12T04:09:28.146Z,2.60
2018-12-12T04:12:04.058Z,2.50
2018-12-12T04:14:39.211Z,2.50
2018-12-12T04:17:13.927Z,2.60
2018-12-12T04:19:47.843Z,2.50
2018-12-12T04:22:22.331Z,2.50
2018-12-12T04:27:27.450Z,2.50
2018-12-12T04:32:36.594Z,2.50
2018-12-12T04:35:10.592Z,2.50
2018-12-12T04:37:45.298Z,2.50
2018-12-12T04:40:19.206Z,2.50
2018-12-12T04:42:55.198Z,2.30
2018-12-12T04:50:37.741Z,2.40
2018-12-12T04:53:13.699Z,2.40
2018-12-12T04:55:48.550Z,2.40
2018-12-12T04:58:22.645Z,2.50
2018-12-12T05:00:56.553Z,2.50
2018-12-12T05:03:30.717Z,2.50
2018-12-12T05:06:05.534Z,2.50
2018-12-12T05:08:40.349Z,2.60
2018-12-12T05:11:14.366Z,2.60
2018-12-12T05:13:50.410Z,2.50
2018-12-12T05:16:24.558Z,2.50
2018-12-12T05:18:58.541Z,2.50
2018-12-12T05:21:32.511Z,2.50
2018-12-12T05:24:06.526Z,2.50
2018-12-12T05:26:40.738Z,2.40
2018-12-12T05:29:14.685Z,2.50
2018-12-12T05:31:48.655Z,2.50
2018-12-12T05:34:22.601Z,2.40
2018-12-12T05:36:56.509Z,2.40
2018-12-12T05:39:31.201Z,2.40
2018-12-12T05:42:06.633Z,2.30
2018-12-12T05:44:41.376Z,2.40
2018-12-12T05:47:16.071Z,2.40
2018-12-12T05:49:50.003Z,2.40
2018-12-12T05:52:24.112Z,2.40
2018-12-12T05:54:58.246Z,2.40
2018-12-12T05:57:32.150Z,2.40
2018-12-12T06:00:07.051Z,2.40
2018-12-12T06:02:43.042Z,2.40
2018-12-12T06:05:16.981Z,2.40
2018-12-12T06:07:51.730Z,2.30
2018-12-12T06:10:25.738Z,2.40
2018-12-12T06:12:59.979Z,2.30
2018-12-12T06:15:34.617Z,2.30
2018-12-12T06:18:08.639Z,2.30
2018-12-12T06:20:42.759Z,2.40
2018-12-12T06:23:17.462Z,2.30
2018-12-12T06:25:51.525Z,2.30
2018-12-12T06:28:25.521Z,2.40
2018-12-12T06:30:59.870Z,2.30
2018-12-12T06:33:34.737Z,2.20
2018-12-12T06:36:09.450Z,2.20
2018-12-12T06:38:43.469Z,2.20
2018-12-12T06:43:51.981Z,2.10
2018-12-12T06:46:26.808Z,2.10
2018-12-12T06:48:56.913Z,2.00
2018-12-12T06:51:28.818Z,2.00
2018-12-12T06:54:02.920Z,2.00
2018-12-12T06:56:36.959Z,2.00
2018-12-12T06:59:11.773Z,2.00
2018-12-12T07:01:46.070Z,2.00
2018-12-12T07:04:20.122Z,2.00
2018-12-12T07:06:55.257Z,2.10
2018-12-12T07:09:29.882Z,2.00
2018-12-12T07:12:00.376Z,2.00
2018-12-12T07:14:34.394Z,2.00
2018-12-12T07:17:09.146Z,1.90
2018-12-12T07:19:43.172Z,2.00
2018-12-12T07:22:17.139Z,2.00
2018-12-12T07:24:51.959Z,2.00
2018-12-12T07:27:25.865Z,2.00
2018-12-12T07:29:59.986Z,1.90
2018-12-12T07:32:34.201Z,2.00
2018-12-12T07:35:08.928Z,2.00
2018-12-12T07:37:42.973Z,2.00
2018-12-12T07:40:16.889Z,2.00
2018-12-12T07:42:51.693Z,2.10
2018-12-12T07:45:25.622Z,2.10
2018-12-12T07:48:01.616Z,2.10
2018-12-12T07:50:35.583Z,2.10
2018-12-12T07:53:09.410Z,2.00
2018-12-12T07:55:43.826Z,2.10
2018-12-12T07:58:17.745Z,2.10
2018-12-12T08:00:48.617Z,2.10
2018-12-12T08:03:19.361Z,2.00
2018-12-12T08:05:53.553Z,2.10
2018-12-12T08:08:28.374Z,2.20
2018-12-12T08:11:03.467Z,2.10
2018-12-12T08:13:39.507Z,2.10
2018-12-12T08:16:10.300Z,2.10
2018-12-12T08:18:44.105Z,2.00
2018-12-12T08:21:18.073Z,2.00
2018-12-12T08:23:51.969Z,2.00
2018-12-12T08:26:26.122Z,2.00
2018-12-12T08:29:00.121Z,2.00
2018-12-12T08:31:34.193Z,2.00
2018-12-12T08:34:04.953Z,2.00
2018-12-12T08:36:38.985Z,2.00
2018-12-12T08:39:13.002Z,2.00
2018-12-12T08:41:44.910Z,1.90
2018-12-12T08:44:15.697Z,1.90
2018-12-12T08:46:49.705Z,2.00
2018-12-12T08:49:23.718Z,2.00
2018-12-12T08:51:58.594Z,1.90
2018-12-12T08:54:33.413Z,2.00
2018-12-12T08:57:07.722Z,2.20
2018-12-12T08:59:41.734Z,2.30
2018-12-12T09:14:57.261Z,3.40
2018-12-12T09:17:31.249Z,3.30
2018-12-12T09:20:05.205Z,3.40
2018-12-12T09:22:42.033Z,3.20
2018-12-12T09:25:15.991Z,3.10
2018-12-12T09:27:50.167Z,3.00
2018-12-12T09:30:24.178Z,2.90
2018-12-12T09:33:00.101Z,2.90
2018-12-12T09:38:09.030Z,2.50
2018-12-12T09:40:43.990Z,2.30
2018-12-12T09:43:17.981Z,2.30
2018-12-12T09:45:52.785Z,2.20
2018-12-12T09:48:27.033Z,2.30
2018-12-12T09:51:07.044Z,2.20
2018-12-12T09:53:37.202Z,2.20
2018-12-12T09:56:11.907Z,2.40
2018-12-12T09:58:46.031Z,2.60
2018-12-12T10:01:20.259Z,2.80
2018-12-12T10:03:54.283Z,2.90
2018-12-12T10:16:35.858Z,3.90
2018-12-12T10:19:10.070Z,4.10
2018-12-12T10:24:16.540Z,4.50
2018-12-12T10:26:50.761Z,4.80
2018-12-12T10:34:29.942Z,5.90
2018-12-12T10:37:04.069Z,6.30
2018-12-12T10:39:38.215Z,6.40
2018-12-12T10:42:12.374Z,6.60
2018-12-12T10:44:46.443Z,6.30
2018-12-12T10:47:20.589Z,6.10
2018-12-12T10:55:04.322Z,8.10
2018-12-12T11:07:42.914Z,9.90
2018-12-12T11:12:59.546Z,10.50
2018-12-12T11:15:34.101Z,10.10
2018-12-12T11:18:08.134Z,10.00
2018-12-12T11:23:18.845Z,9.10
2018-12-12T11:25:53.077Z,8.60
2018-12-12T11:31:02.083Z,7.90
2018-12-12T11:36:11.921Z,7.70
2018-12-12T11:38:45.921Z,8.00
2018-12-12T11:51:35.645Z,10.40
2018-12-12T11:54:10.529Z,10.30
2018-12-12T11:56:44.565Z,10.10
2018-12-12T12:04:27.478Z,8.20
2018-12-12T12:07:01.725Z,7.70
2018-12-12T12:09:35.966Z,7.60
2018-12-12T12:19:55.587Z,6.60
2018-12-12T12:22:30.445Z,7.00
2018-12-12T12:25:04.563Z,6.90
2018-12-12T12:27:38.482Z,7.00
2018-12-12T12:30:12.393Z,7.10
2018-12-12T12:32:46.382Z,7.00
2018-12-12T12:35:20.302Z,6.80
2018-12-12T12:40:25.645Z,6.30
2018-12-12T12:43:01.483Z,6.30
2018-12-12T12:45:36.218Z,6.30
2018-12-12T12:50:41.006Z,6.00
2018-12-12T12:53:15.053Z,5.90
2018-12-12T12:58:23.744Z,5.80
2018-12-12T13:00:57.799Z,5.70
2018-12-12T13:03:33.671Z,5.80
2018-12-12T13:06:07.697Z,5.80
2018-12-12T13:13:53.529Z,5.70
2018-12-12T13:16:27.948Z,5.60
2018-12-12T13:19:02.245Z,5.70
2018-12-12T13:21:37.362Z,5.60
2018-12-12T13:24:11.309Z,5.60
2018-12-12T13:31:56.369Z,5.40
2018-12-12T13:34:30.706Z,5.40
2018-12-12T13:37:04.706Z,5.50
2018-12-12T13:39:39.419Z,5.40
2018-12-12T13:42:14.569Z,5.40
2018-12-12T13:44:49.294Z,5.40
2018-12-12T13:47:23.417Z,5.40
2018-12-12T13:49:57.430Z,5.40
2018-12-12T13:52:32.298Z,5.40
2018-12-12T13:55:06.294Z,5.20
2018-12-12T13:57:40.318Z,5.20
2018-12-12T14:00:14.666Z,5.20
2018-12-12T14:02:50.738Z,5.10
2018-12-12T14:05:24.771Z,5.10
2018-12-12T14:07:58.760Z,5.00
2018-12-12T14:10:32.919Z,5.00
2018-12-12T14:13:07.797Z,5.00
2018-12-12T14:23:16.503Z,4.80
2018-12-12T14:25:50.626Z,4.80
2018-12-12T14:28:24.649Z,4.70
2018-12-12T14:30:58.705Z,4.80
2018-12-12T14:33:32.934Z,4.70
2018-12-12T14:36:07.053Z,4.50
2018-12-12T14:38:41.874Z,4.40
2018-12-12T14:41:15.889Z,4.40
2018-12-12T14:43:50.710Z,4.40
2018-12-12T14:46:25.527Z,4.40
2018-12-12T14:48:59.563Z,4.30
2018-12-12T14:51:33.977Z,4.20
2018-12-12T14:54:07.889Z,4.10
2018-12-12T14:56:41.825Z,4.00
2018-12-12T14:59:15.866Z,3.90
2018-12-12T15:04:24.786Z,3.70
2018-12-12T15:06:59.656Z,3.50
2018-12-12T15:09:34.334Z,3.40
2018-12-12T15:12:09.882Z,3.40
2018-12-12T15:14:43.886Z,3.20
2018-12-12T15:19:52.717Z,3.10
2018-12-12T15:22:26.858Z,3.10
2018-12-12T15:40:07.701Z,2.80
2018-12-12T15:45:13.542Z,2.70
2018-12-12T15:47:47.760Z,2.70
2018-12-12T15:50:21.678Z,2.80
2018-12-12T15:52:57.645Z,2.60
2018-12-12T15:55:31.581Z,2.50
2018-12-12T15:58:05.797Z,2.40
2018-12-12T16:03:20.478Z,2.30
2018-12-12T16:05:54.550Z,2.40
2018-12-12T16:08:28.469Z,2.40
2018-12-12T16:11:08.065Z,2.50
2018-12-12T16:13:38.612Z,2.40
2018-12-12T16:16:13.439Z,2.20
2018-12-12T16:18:47.581Z,2.30
2018-12-12T16:21:21.514Z,2.40
2018-12-12T16:23:57.426Z,2.50
2018-12-12T16:26:31.229Z,2.40
2018-12-12T16:29:05.167Z,2.50
2018-12-12T16:31:35.269Z,2.50
2018-12-12T16:34:09.209Z,2.50
2018-12-12T16:36:43.133Z,2.60
2018-12-12T16:39:17.862Z,2.60
2018-12-12T16:41:51.893Z,2.60
2018-12-12T16:44:26.614Z,2.50
2018-12-12T16:49:32.355Z,2.60
2018-12-12T16:52:17.059Z,2.70
2018-12-12T16:54:51.198Z,2.60
2018-12-12T16:57:25.121Z,2.60
2018-12-12T16:59:59.249Z,2.60
2018-12-12T17:02:31.150Z,2.60
2018-12-12T17:05:06.046Z,2.60
2018-12-12T17:07:40.850Z,2.60
2018-12-12T17:10:15.582Z,2.60
2018-12-12T17:12:49.751Z,2.50
2018-12-12T17:15:20.466Z,2.40
2018-12-12T17:17:54.769Z,2.40
2018-12-12T17:20:28.801Z,2.40
2018-12-12T17:23:02.805Z,2.40
2018-12-12T17:25:37.650Z,2.30
2018-12-12T17:28:12.487Z,2.30
2018-12-12T17:30:46.410Z,2.30
2018-12-12T17:33:20.405Z,2.30
2018-12-12T17:35:54.565Z,2.40
2018-12-12T17:38:28.481Z,2.30
2018-12-12T17:41:03.358Z,2.30
2018-12-12T17:43:37.369Z,2.30
2018-12-12T17:46:11.292Z,2.30
2018-12-12T17:48:45.313Z,2.30
2018-12-12T17:58:52.745Z,2.40
2018-12-12T18:01:26.946Z,2.30
2018-12-12T18:04:01.770Z,2.30
2018-12-12T18:06:32.637Z,2.30
2018-12-12T18:09:07.389Z,2.30
2018-12-12T18:11:42.385Z,2.30
2018-12-12T18:14:17.090Z,2.20
2018-12-12T18:16:51.937Z,2.30
2018-12-12T18:19:26.670Z,2.30
2018-12-12T18:22:02.614Z,2.30
2018-12-12T18:24:37.336Z,2.30
2018-12-12T18:27:12.180Z,2.20
2018-12-12T18:29:46.313Z,2.20
2018-12-12T18:34:48.202Z,2.10
2018-12-12T18:37:22.554Z,2.10
2018-12-12T18:42:31.530Z,2.20
2018-12-12T18:45:05.667Z,2.10
2018-12-12T18:47:39.687Z,2.20
2018-12-12T18:50:14.571Z,2.20
2018-12-12T18:52:50.737Z,2.20
2018-12-12T18:55:25.429Z,2.20
2018-12-12T18:57:59.357Z,2.20
2018-12-12T19:03:07.438Z,2.20
2018-12-12T19:05:41.490Z,2.10
2018-12-12T19:08:15.474Z,2.10
2018-12-12T19:10:50.281Z,2.10
2018-12-12T19:13:24.261Z,2.10
2018-12-12T19:15:58.982Z,2.10
2018-12-12T19:18:33.311Z,2.10
2018-12-12T19:21:07.338Z,2.20
2018-12-12T19:23:42.693Z,2.20
2018-12-12T19:26:17.413Z,2.10
2018-12-12T19:28:51.337Z,2.10
2018-12-12T19:31:25.349Z,2.00
2018-12-12T19:34:00.169Z,2.00
2018-12-12T19:36:30.186Z,2.00
2018-12-12T19:39:05.852Z,1.90
2018-12-12T19:41:40.508Z,1.80
2018-12-12T19:44:14.412Z,1.70
2018-12-12T19:49:23.384Z,1.50
2018-12-12T19:51:58.192Z,1.40
2018-12-12T19:54:32.214Z,1.40
2018-12-12T19:59:41.049Z,1.30
2018-12-12T20:02:15.778Z,1.20
2018-12-12T20:04:49.953Z,1.20
2018-12-12T20:07:23.901Z,1.20
2018-12-12T20:09:58.077Z,1.10
2018-12-12T20:17:37.954Z,0.80
2018-12-12T20:22:48.986Z,0.60
2018-12-12T20:25:23.811Z,0.50
2018-12-12T20:27:57.810Z,0.50
2018-12-12T20:30:35.358Z,0.40
2018-12-12T20:33:08.617Z,0.40
2018-12-12T20:35:47.964Z,0.20
2018-12-12T20:38:18.805Z,0.20
2018-12-12T20:40:53.638Z,0.20
2018-12-12T20:43:24.480Z,0.00
2018-12-12T20:45:58.413Z,0.00
2018-12-12T20:48:33.230Z,0.00
2018-12-12T20:51:07.353Z,0.00
2018-12-12T20:53:43.373Z,0.00
2018-12-12T20:56:17.793Z,-0.10
2018-12-12T20:58:51.894Z,-0.10
2018-12-12T21:01:26.038Z,-0.20
2018-12-12T21:04:00.149Z,-0.20
2018-12-12T21:06:34.301Z,-0.30
2018-12-12T21:09:09.018Z,-0.30
2018-12-12T21:11:45.026Z,-0.40
2018-12-12T21:14:19.745Z,-0.50
2018-12-12T21:16:53.793Z,-0.50
2018-12-12T21:19:28.417Z,-0.40
2018-12-12T21:22:02.501Z,-0.50
2018-12-12T21:24:37.375Z,-0.60
2018-12-12T21:27:11.420Z,-0.60
2018-12-12T21:29:46.149Z,-0.60
2018-12-12T21:32:17.002Z,-0.70
2018-12-12T21:34:51.036Z,-0.70
2018-12-12T21:37:25.050Z,-0.70
2018-12-12T21:39:59.789Z,-0.80
2018-12-12T21:42:31.538Z,-0.80
2018-12-12T21:45:06.053Z,-0.70
2018-12-12T21:47:40.010Z,-0.70
2018-12-12T21:50:14.810Z,-0.80
2018-12-12T21:57:53.985Z,-1.00
2018-12-12T22:00:27.931Z,-1.00
2018-12-12T22:03:04.033Z,-1.00
2018-12-12T22:05:38.749Z,-1.00
2018-12-12T22:08:12.794Z,-1.20
2018-12-12T22:10:47.394Z,-1.20
2018-12-12T22:13:21.469Z,-1.20
2018-12-12T22:15:56.199Z,-1.20
2018-12-12T22:18:30.129Z,-1.20
2018-12-12T22:21:04.137Z,-1.20
2018-12-12T22:23:40.785Z,-1.30
2018-12-12T22:26:11.426Z,-1.30
2018-12-12T22:28:46.242Z,-1.40
2018-12-12T22:31:20.177Z,-1.40
2018-12-12T22:33:55.596Z,-1.40
2018-12-12T22:36:30.353Z,-1.50
2018-12-12T22:39:05.733Z,-1.50
2018-12-12T22:41:41.922Z,-1.60
2018-12-12T22:44:15.946Z,-1.60
2018-12-12T22:46:49.845Z,-1.60
2018-12-12T22:49:24.665Z,-1.50
2018-12-12T22:51:56.528Z,-1.60
2018-12-12T22:54:30.558Z,-1.70
2018-12-12T22:57:05.400Z,-1.60
2018-12-12T22:59:36.022Z,-1.70
2018-12-12T23:02:06.934Z,-1.70
2018-12-12T23:04:41.465Z,-1.70
2018-12-12T23:07:15.390Z,-1.70
2018-12-12T23:12:22.168Z,-1.70
2018-12-12T23:17:30.489Z,-1.70
2018-12-12T23:20:05.449Z,-1.70
2018-12-12T23:22:36.254Z,-1.60
2018-12-12T23:25:10.298Z,-1.70
2018-12-12T23:27:41.099Z,-1.70
2018-12-12T23:30:15.801Z,-1.70
2018-12-12T23:32:49.747Z,-1.70
2018-12-12T23:35:24.366Z,-1.60
2018-12-12T23:37:55.173Z,-1.70
2018-12-12T23:40:25.894Z,-1.70
2018-12-12T23:43:01.745Z,-1.70
2018-12-12T23:45:32.266Z,-1.70
2018-12-12T23:48:07.216Z,-1.70
2018-12-12T23:58:17.849Z,-1.90
